Terminal Aerodrome Forecast
Issued by NWS

Home | Current Version | Previous Version | Text Only | Print | Product List | Glossary On
Versions: 1 2 3 4 5 6 7 8 9 10 11 12 13 14 15
000
FTUS43 KMPX 230520
TAFRNH
TAF
KRNH 230520Z 2306/2406 15008KT P6SM OVC070
     FM231500 15014KT P6SM OVC050
     FM232100 15014KT P6SM OVC025
     FM232300 15011KT 6SM -SHRA BR OVC015
     FM240400 16008KT 4SM -RA BR OVC007=

USA.gov is the U.S. government's official web portal to all federal, state and local government web resources and services.